KLRU/LRU METAR and TAF weather

Enter ICAO airport designator
Station Type Date Time Source
KLRU METAR 2020/02/24 07:55 UTC NOAA

KLRU 240755Z AUTO 27012KT 10SM CLR 05/01 A3012 RMK AO2 T00530006


Station Type Date Time Source
KLRU Decoded METAR 2020/02/24 07:55 UTC NOAA

Las Cruces, Las Cruces International Airport, NM, United States (KLRU) 32-17-22N 106-55-19W
Feb 24, 2020 - 02:55 AM EST / 2020.02.24 0755 UTC
Wind: from the W (270 degrees) at 14 MPH (12 KT):0
Visibility: 10 mile(s):0
Sky conditions: clear
Temperature: 41.5 F (5.3 C)
Dew Point: 33.1 F (0.6 C)
Relative Humidity: 71%
Pressure (altimeter): 30.12 in. Hg (1019 hPa)
ob: KLRU 240755Z AUTO 27012KT 10SM CLR 05/01 A3012 RMK AO2 T00530006
cycle: 8

Station Type Date Time Source
KLRU TAF 2020/02/24 06:22 UTC NOAA

TAF KLRU 240520Z 2406/2506 28012G20KT P6SM FEW090
FM240900 28011KT P6SM SKC
FM242000 26012G20KT P6SM SKC

Example: see airport list